Time;durP1;ratioP1;P1;durP2;ratioP2;P2;SDS_P1;SDS_P2;PMS_P1;PMS_P2;Temp;Humidity;BMP_temperature;BMP_pressure;BME280_temperature;BME280_humidity;BME280_pressure;Samples;Min_cycle;Max_cycle;Signal;HPM_P1;HPM_P2
2022/04/03 00:01:42;;;;;;;18.17;8.23;;;1.60;99.90;;;;;;5104200;27;20230;-78
2022/04/03 00:04:31;;;;;;;15.13;7.03;;;1.50;99.90;;;;;;5098390;27;20223;-77
2022/04/03 00:07:20;;;;;;;19.37;7.60;;;1.40;99.90;;;;;;5092363;28;20337;-77
2022/04/03 00:10:10;;;;;;;18.30;10.53;;;1.40;99.90;;;;;;5091634;28;20219;-77
2022/04/03 00:12:59;;;;;;;18.73;8.47;;;1.40;99.90;;;;;;5097762;27;20357;-75
2022/04/03 00:15:48;;;;;;;15.10;7.60;;;1.40;99.90;;;;;;5092119;28;20246;-74
2022/04/03 00:18:39;;;;;;;17.50;9.97;;;1.40;99.90;;;;;;5093762;28;20249;-74
2022/04/03 00:21:27;;;;;;;17.27;8.90;;;1.30;99.90;;;;;;5093201;27;20773;-74
2022/04/03 00:24:17;;;;;;;26.67;15.83;;;1.40;99.90;;;;;;5072108;28;20226;-74
2022/04/03 00:27:06;;;;;;;22.87;13.90;;;1.40;99.90;;;;;;5093762;28;20234;-74
2022/04/03 00:29:55;;;;;;;24.80;12.80;;;1.30;99.90;;;;;;5081731;28;20886;-74
2022/04/03 00:32:44;;;;;;;22.37;14.63;;;1.30;99.90;;;;;;5087317;28;20323;-72
2022/04/03 00:35:34;;;;;;;18.63;10.60;;;1.30;99.90;;;;;;5093530;28;20740;-72
2022/04/03 00:38:23;;;;;;;20.33;9.57;;;1.40;99.90;;;;;;5093701;27;20662;-72
2022/04/03 00:41:12;;;;;;;12.00;7.40;;;1.30;99.90;;;;;;5091883;27;20219;-72
2022/04/03 00:44:01;;;;;;;16.00;8.00;;;1.20;99.90;;;;;;5090090;28;20296;-72
2022/04/03 00:46:51;;;;;;;20.40;8.13;;;1.20;99.90;;;;;;5073175;28;20376;-72
2022/04/03 00:49:43;;;;;;;11.40;7.27;;;1.20;99.90;;;;;;5089089;27;20216;-72
2022/04/03 00:52:33;;;;;;;15.43;7.70;;;1.20;99.90;;;;;;5089299;27;20224;-72
2022/04/03 00:55:22;;;;;;;13.93;6.83;;;1.20;99.90;;;;;;5090088;28;20673;-71
2022/04/03 00:58:12;;;;;;;17.33;8.00;;;1.20;99.90;;;;;;5091820;28;20222;-74
2022/04/03 01:01:00;;;;;;;15.10;7.60;;;1.20;99.90;;;;;;5091556;28;20223;-72
2022/04/03 01:03:49;;;;;;;12.10;7.33;;;1.10;99.90;;;;;;5077177;28;20743;-74
2022/04/03 01:06:38;;;;;;;15.83;7.27;;;1.20;99.90;;;;;;5082915;28;20234;-78
2022/04/03 01:09:29;;;;;;;10.93;6.23;;;1.20;99.90;;;;;;5080754;28;20314;-76
2022/04/03 01:12:18;;;;;;;11.40;6.50;;;1.10;99.90;;;;;;5081652;28;20298;-75
2022/04/03 01:15:27;;;;;;;14.60;6.57;;;1.20;99.90;;;;;;5092412;27;20285;-75
2022/04/03 01:18:16;;;;;;;12.60;6.53;;;1.10;99.90;;;;;;5079372;28;20226;-76
2022/04/03 01:21:05;;;;;;;11.67;6.17;;;1.00;99.90;;;;;;5077054;28;20689;-77
2022/04/03 01:23:55;;;;;;;12.00;6.47;;;1.00;99.90;;;;;;5088935;27;20214;-75
2022/04/03 01:26:46;;;;;;;12.23;6.67;;;1.00;99.90;;;;;;5086376;28;20226;-75
2022/04/03 01:29:34;;;;;;;11.03;6.60;;;1.00;99.90;;;;;;5094640;28;20231;-76
2022/04/03 01:32:23;;;;;;;11.23;6.53;;;0.90;99.90;;;;;;5088768;28;20810;-74
2022/04/03 01:35:15;;;;;;;13.40;6.57;;;0.90;99.90;;;;;;5087088;27;20218;-74
2022/04/03 01:38:07;;;;;;;14.67;6.97;;;0.90;99.90;;;;;;5075433;28;20255;-69
2022/04/03 01:40:56;;;;;;;16.23;6.90;;;0.90;99.90;;;;;;5077749;28;20239;-68
2022/04/03 01:43:46;;;;;;;16.07;7.27;;;0.90;99.90;;;;;;5091319;27;20218;-67
2022/04/03 01:46:35;;;;;;;19.60;8.00;;;0.90;99.90;;;;;;5089152;28;20245;-69
2022/04/03 01:49:28;;;;;;;16.93;7.83;;;0.90;99.90;;;;;;5091815;27;20230;-69
2022/04/03 01:52:16;;;;;;;13.80;7.53;;;0.90;99.90;;;;;;5076668;28;20435;-69
2022/04/03 01:55:06;;;;;;;14.50;7.10;;;0.90;99.90;;;;;;5071240;28;20717;-73
2022/04/03 01:57:55;;;;;;;14.20;7.10;;;0.80;99.90;;;;;;5075629;28;20222;-73
2022/04/03 02:00:45;;;;;;;16.83;7.20;;;0.90;99.90;;;;;;5085959;28;20321;-74
2022/04/03 02:03:34;;;;;;;13.13;7.60;;;0.80;99.90;;;;;;5074917;28;20227;-75
2022/04/03 02:06:23;;;;;;;14.10;6.90;;;0.80;99.90;;;;;;5085159;28;20223;-74
2022/04/03 02:09:12;;;;;;;11.00;6.83;;;0.80;99.90;;;;;;5093434;28;20223;-74
2022/04/03 02:12:01;;;;;;;12.57;6.87;;;0.80;99.90;;;;;;5092440;28;20814;-80
2022/04/03 02:14:50;;;;;;;13.80;6.97;;;0.80;99.90;;;;;;5096737;28;20211;-79
2022/04/03 02:17:43;;;;;;;15.33;6.83;;;0.80;99.90;;;;;;5089919;28;20226;-78
2022/04/03 02:20:32;;;;;;;12.13;6.87;;;0.70;99.90;;;;;;5073044;28;20227;-81
2022/04/03 02:23:21;;;;;;;12.03;6.50;;;0.70;99.90;;;;;;5093208;28;20249;-80
2022/04/03 02:26:09;;;;;;;14.20;6.37;;;0.70;99.90;;;;;;5096872;28;20566;-79
2022/04/03 02:29:01;;;;;;;12.27;7.60;;;0.50;99.90;;;;;;5097322;28;20243;-80
2022/04/03 02:31:50;;;;;;;10.93;6.73;;;0.50;99.90;;;;;;5103000;28;20233;-81
2022/04/03 02:34:40;;;;;;;10.80;7.03;;;0.50;99.90;;;;;;5080825;28;20229;-82
2022/04/03 02:37:32;;;;;;;13.53;6.80;;;0.40;99.90;;;;;;5094057;28;20312;-81
2022/04/03 02:40:21;;;;;;;14.40;8.27;;;0.40;99.90;;;;;;5082793;28;20219;-84
2022/04/03 02:43:09;;;;;;;11.60;7.20;;;0.50;99.90;;;;;;5099456;28;20286;-76
2022/04/03 02:45:58;;;;;;;15.20;7.57;;;0.40;99.90;;;;;;5091783;28;20223;-77
2022/04/03 02:48:47;;;;;;;12.80;7.10;;;0.40;99.90;;;;;;5091718;27;20217;-75
2022/04/03 02:51:37;;;;;;;16.97;7.47;;;0.40;99.90;;;;;;5094207;28;20231;-77
2022/04/03 02:54:26;;;;;;;11.50;6.80;;;0.30;99.90;;;;;;5082479;28;21035;-76
2022/04/03 02:57:16;;;;;;;11.87;6.77;;;0.30;99.90;;;;;;5089245;28;20217;-72
2022/04/03 03:00:06;;;;;;;11.80;7.10;;;0.30;99.90;;;;;;5076200;27;21248;-73
2022/04/03 03:02:58;;;;;;;11.53;6.87;;;0.20;99.90;;;;;;5075519;28;20713;-72
2022/04/03 03:05:47;;;;;;;12.67;7.07;;;0.30;99.90;;;;;;5092973;28;20771;-72
2022/04/03 03:08:37;;;;;;;13.93;7.00;;;0.30;99.90;;;;;;5089294;28;20230;-70
2022/04/03 03:11:26;;;;;;;14.33;7.20;;;0.20;99.90;;;;;;5075578;28;20985;-70
2022/04/03 03:14:15;;;;;;;14.67;7.13;;;0.30;99.90;;;;;;5097630;27;20222;-69
2022/04/03 03:17:04;;;;;;;12.27;5.90;;;0.30;99.90;;;;;;5095944;28;20459;-69
2022/04/03 03:19:52;;;;;;;15.53;6.13;;;0.10;99.90;;;;;;5093702;27;20305;-69
2022/04/03 03:22:42;;;;;;;11.33;6.60;;;0.10;99.90;;;;;;5092578;28;20222;-70
2022/04/03 03:25:32;;;;;;;15.27;7.27;;;0.10;99.90;;;;;;5087793;28;20321;-70
2022/04/03 03:28:21;;;;;;;11.93;6.97;;;0.20;99.90;;;;;;5091127;28;20227;-71
2022/04/03 03:31:09;;;;;;;15.03;6.63;;;0.20;99.90;;;;;;5092398;27;20218;-70
2022/04/03 03:33:58;;;;;;;14.73;6.97;;;0.20;99.90;;;;;;5088649;28;20233;-70
2022/04/03 03:36:50;;;;;;;13.50;7.50;;;-0.10;99.90;;;;;;5093647;28;20235;-70
2022/04/03 03:39:39;;;;;;;13.00;7.00;;;0.10;99.90;;;;;;5073539;28;20840;-71
2022/04/03 03:42:29;;;;;;;13.87;6.90;;;0.10;99.90;;;;;;5077756;28;20953;-71
2022/04/03 03:45:18;;;;;;;13.97;6.30;;;0.10;99.90;;;;;;5089420;28;20755;-70
2022/04/03 03:48:12;;;;;;;10.23;6.30;;;0.10;99.90;;;;;;5078705;28;20301;-79
2022/04/03 03:51:00;;;;;;;9.53;6.17;;;0.10;99.90;;;;;;5098201;27;20215;-81
2022/04/03 03:53:49;;;;;;;13.63;6.07;;;0.00;99.90;;;;;;5097232;28;20223;-81
2022/04/03 03:56:41;;;;;;;11.40;6.53;;;0.00;99.90;;;;;;5101294;28;20222;-83
2022/04/03 03:59:31;;;;;;;11.97;6.80;;;0.00;99.90;;;;;;5080782;28;20223;-84
2022/04/03 04:02:20;;;;;;;25.57;13.20;;;0.00;99.90;;;;;;5090216;28;20223;-75
2022/04/03 04:05:09;;;;;;;36.60;17.13;;;0.00;99.90;;;;;;5093487;28;20218;-74
2022/04/03 04:07:58;;;;;;;16.33;7.80;;;-0.10;99.90;;;;;;5094178;27;20370;-73
2022/04/03 04:10:47;;;;;;;13.10;7.17;;;0.00;99.90;;;;;;5085223;28;20411;-76
2022/04/03 04:13:36;;;;;;;12.07;6.97;;;-0.10;99.90;;;;;;5089890;28;20250;-77
2022/04/03 04:16:26;;;;;;;11.53;7.63;;;-0.20;99.90;;;;;;5094325;28;20233;-79
2022/04/03 04:19:15;;;;;;;9.67;6.07;;;-0.20;99.90;;;;;;5086856;28;20221;-81
2022/04/03 04:22:04;;;;;;;10.30;5.60;;;-0.20;99.90;;;;;;5100740;27;20230;-81
2022/04/03 04:24:53;;;;;;;11.87;5.80;;;-0.30;99.90;;;;;;5103132;27;20707;-81
2022/04/03 04:27:42;;;;;;;11.70;6.17;;;-0.30;99.90;;;;;;5083445;28;20230;-77
2022/04/03 04:30:37;;;;;;;12.30;6.90;;;-0.20;99.90;;;;;;5083409;27;20219;-75
2022/04/03 04:33:27;;;;;;;10.83;6.60;;;-0.30;99.90;;;;;;5100244;27;20235;-78
2022/04/03 04:36:16;;;;;;;10.67;6.33;;;-0.20;99.90;;;;;;5094392;27;20218;-76
2022/04/03 04:39:09;;;;;;;12.27;6.10;;;-0.10;99.90;;;;;;5093412;28;20233;-77
2022/04/03 04:41:57;;;;;;;14.27;7.47;;;-0.20;99.90;;;;;;5088577;28;20372;-76
2022/04/03 04:44:49;;;;;;;11.87;5.67;;;-0.10;99.90;;;;;;5094550;27;20238;-76
2022/04/03 04:47:38;;;;;;;12.47;5.87;;;-0.20;99.90;;;;;;5075155;27;20233;-76
2022/04/03 04:50:29;;;;;;;11.73;6.50;;;-0.10;99.90;;;;;;5075671;28;20238;-76
2022/04/03 04:53:18;;;;;;;12.60;6.27;;;-0.10;99.90;;;;;;5091662;28;20222;-76
2022/04/03 04:56:06;;;;;;;11.27;6.47;;;-0.10;99.90;;;;;;5083380;28;20241;-78
2022/04/03 04:58:55;;;;;;;12.63;7.00;;;-0.10;99.90;;;;;;5080037;28;20229;-77
2022/04/03 05:01:44;;;;;;;13.47;8.37;;;-0.10;99.90;;;;;;5093840;27;20214;-78
2022/04/03 05:04:37;;;;;;;11.47;6.83;;;-0.10;99.90;;;;;;5091003;27;20238;-77
2022/04/03 05:07:28;;;;;;;15.10;7.97;;;-0.10;99.90;;;;;;5092948;27;20938;-78
2022/04/03 05:10:17;;;;;;;15.13;8.70;;;-0.10;99.90;;;;;;5103749;27;20245;-78
2022/04/03 05:13:09;;;;;;;11.87;7.37;;;0.00;99.90;;;;;;5084562;28;20215;-74
2022/04/03 05:15:58;;;;;;;12.80;6.97;;;0.00;99.90;;;;;;5089426;28;20234;-74
2022/04/03 05:18:47;;;;;;;13.47;8.43;;;0.10;99.90;;;;;;5092215;27;20593;-74
2022/04/03 05:21:36;;;;;;;13.00;8.13;;;0.10;99.90;;;;;;5092670;28;20693;-77
2022/04/03 05:24:26;;;;;;;12.53;7.23;;;0.20;99.90;;;;;;5088897;27;20217;-77
2022/04/03 05:27:18;;;;;;;11.33;7.27;;;0.00;99.90;;;;;;5093279;27;20215;-76
2022/04/03 05:30:08;;;;;;;13.43;7.80;;;0.30;99.90;;;;;;5074992;27;20702;-77
2022/04/03 05:32:57;;;;;;;13.77;7.33;;;0.40;99.90;;;;;;5081219;28;20233;-78
2022/04/03 05:35:45;;;;;;;9.30;6.43;;;0.50;99.90;;;;;;5081740;27;20214;-74
2022/04/03 05:38:34;;;;;;;11.50;7.33;;;0.50;99.90;;;;;;5091827;27;20222;-69
2022/04/03 05:41:24;;;;;;;9.90;7.07;;;0.70;99.90;;;;;;5090447;27;20230;-70
2022/04/03 05:44:15;;;;;;;14.17;7.53;;;0.70;99.90;;;;;;5089535;28;20284;-71
2022/04/03 05:47:08;;;;;;;10.90;6.87;;;0.60;99.90;;;;;;5089852;28;20224;-72
2022/04/03 05:50:00;;;;;;;13.83;6.97;;;0.40;99.90;;;;;;5072609;28;20215;-71
2022/04/03 05:52:51;;;;;;;11.70;7.60;;;0.60;99.90;;;;;;5090199;28;20220;-72
2022/04/03 05:55:39;;;;;;;15.33;7.80;;;0.70;99.90;;;;;;5092134;28;20775;-72
2022/04/03 05:58:29;;;;;;;9.77;6.43;;;0.90;99.90;;;;;;5081591;27;20224;-74
2022/04/03 06:01:18;;;;;;;11.17;7.37;;;0.80;99.90;;;;;;5092364;27;20215;-72
2022/04/03 06:04:07;;;;;;;12.43;7.03;;;1.00;99.90;;;;;;5089998;28;20326;-71
2022/04/03 06:06:56;;;;;;;13.23;7.50;;;1.20;99.90;;;;;;5091035;28;20303;-72
2022/04/03 06:09:44;;;;;;;13.10;7.60;;;1.00;99.90;;;;;;5102149;27;20802;-71
2022/04/03 06:12:33;;;;;;;12.30;7.17;;;1.10;99.90;;;;;;5105742;27;20226;-69
2022/04/03 06:15:29;;;;;;;12.77;6.37;;;1.00;99.90;;;;;;5097895;28;20216;-71
2022/04/03 06:18:19;;;;;;;16.27;7.30;;;1.00;99.90;;;;;;5093538;28;20214;-71
2022/04/03 06:21:12;;;;;;;12.47;7.40;;;1.20;99.90;;;;;;5093030;28;20219;-70
2022/04/03 06:24:01;;;;;;;11.37;7.53;;;1.10;99.90;;;;;;5083685;28;20230;-70
2022/04/03 06:26:50;;;;;;;9.57;6.63;;;1.30;99.90;;;;;;5093602;28;20211;-71
2022/04/03 06:29:39;;;;;;;15.10;6.60;;;1.50;99.90;;;;;;5101357;28;20586;-71
2022/04/03 06:32:29;;;;;;;11.10;6.37;;;1.20;99.90;;;;;;5088264;28;20238;-71
2022/04/03 06:35:18;;;;;;;14.80;6.77;;;1.00;99.90;;;;;;5082905;28;20220;-70
2022/04/03 06:38:07;;;;;;;13.57;6.97;;;1.30;99.90;;;;;;5078436;28;20230;-72
2022/04/03 06:40:58;;;;;;;15.10;7.70;;;1.40;99.90;;;;;;5088719;28;20584;-79
2022/04/03 06:43:47;;;;;;;11.83;6.97;;;1.60;99.90;;;;;;5095078;28;20229;-75
2022/04/03 06:46:36;;;;;;;15.87;7.20;;;1.60;99.90;;;;;;5073362;28;20230;-76
2022/04/03 06:49:30;;;;;;;11.17;5.87;;;1.60;99.90;;;;;;5078586;28;20678;-76
2022/04/03 06:52:18;;;;;;;10.27;6.70;;;1.40;99.90;;;;;;5092964;28;20215;-74
2022/04/03 06:55:12;;;;;;;9.03;5.70;;;1.50;99.90;;;;;;5097339;28;20226;-74
2022/04/03 06:58:02;;;;;;;11.27;6.90;;;1.40;99.90;;;;;;5082896;28;20219;-74
2022/04/03 07:00:51;;;;;;;13.60;5.90;;;1.50;99.90;;;;;;5094773;28;20222;-74
2022/04/03 07:03:39;;;;;;;11.30;6.07;;;1.40;99.90;;;;;;5075082;28;20777;-74
2022/04/03 07:06:29;;;;;;;9.20;6.47;;;1.80;99.90;;;;;;5099374;28;20251;-80
2022/04/03 07:12:21;;;;;;;9.90;6.00;;;2.00;99.90;;;;;;5092129;27;20230;-75
2022/04/03 07:15:12;;;;;;;9.83;6.30;;;2.80;99.90;;;;;;5095075;27;20255;-74
2022/04/03 07:18:01;;;;;;;9.37;6.07;;;3.80;99.90;;;;;;5094637;27;20222;-74
2022/04/03 07:20:50;;;;;;;12.17;6.90;;;4.80;99.90;;;;;;5078548;28;20597;-63
2022/04/03 07:23:37;;;;;;;13.67;6.53;;;6.00;99.90;;;;;;4990078;28;20721;-85
2022/04/03 07:26:25;;;;;;;10.10;6.43;;;7.10;96.80;;;;;;5017410;28;20219;-84
2022/04/03 07:29:15;;;;;;;10.53;6.03;;;7.50;90.60;;;;;;5018695;28;20233;-86
2022/04/03 07:32:05;;;;;;;9.60;5.70;;;7.30;90.10;;;;;;5013979;28;20229;-88
2022/04/03 07:34:54;;;;;;;11.93;5.50;;;8.40;87.80;;;;;;4997986;28;20297;-83
2022/04/03 07:37:43;;;;;;;8.70;5.67;;;7.60;81.40;;;;;;5007057;28;20352;-82
2022/04/03 07:40:33;;;;;;;11.90;5.57;;;7.90;81.00;;;;;;5006797;28;20227;-82
2022/04/03 07:43:41;;;;;;;9.70;5.17;;;8.60;80.00;;;;;;4990384;28;20557;-82
2022/04/03 07:46:30;;;;;;;12.80;5.73;;;10.00;78.30;;;;;;4992521;28;20748;-82
2022/04/03 07:49:19;;;;;;;7.60;5.00;;;10.90;76.10;;;;;;5012904;28;20671;-82
2022/04/03 07:52:08;;;;;;;6.47;5.07;;;11.10;71.50;;;;;;4989245;28;20222;-82
2022/04/03 07:54:57;;;;;;;8.50;5.00;;;10.90;69.80;;;;;;5008446;28;20989;-82
2022/04/03 07:57:47;;;;;;;9.10;5.03;;;12.40;69.80;;;;;;4993236;28;20736;-83
2022/04/03 08:00:38;;;;;;;8.55;5.50;;;11.70;69.30;;;;;;5007295;28;20233;-83
2022/04/03 08:03:27;;;;;;;9.07;5.40;;;11.60;68.90;;;;;;4992362;28;20221;-83
2022/04/03 08:06:16;;;;;;;7.38;5.13;;;12.70;68.90;;;;;;4991970;28;20218;-83
2022/04/03 08:09:05;;;;;;;9.07;4.90;;;13.80;64.60;;;;;;4988494;28;20222;-83
2022/04/03 08:11:54;;;;;;;5.80;4.53;;;13.30;60.00;;;;;;4993358;28;20241;-84
2022/04/03 08:14:44;;;;;;;6.65;4.70;;;13.00;60.80;;;;;;4991246;28;20229;-83
2022/04/03 08:17:33;;;;;;;7.93;4.28;;;13.80;61.30;;;;;;4994280;28;20847;-83
2022/04/03 08:20:21;;;;;;;9.07;5.13;;;11.50;61.30;;;;;;4991673;28;20226;-83
2022/04/03 08:23:10;;;;;;;6.05;4.43;;;10.20;65.00;;;;;;4994497;28;20226;-83
2022/04/03 08:25:59;;;;;;;6.80;4.85;;;12.30;64.40;;;;;;4996360;28;20733;-84
2022/04/03 08:28:48;;;;;;;5.97;4.10;;;14.00;62.00;;;;;;4998591;28;20293;-85
2022/04/03 08:31:38;;;;;;;5.32;4.10;;;14.10;59.00;;;;;;4999270;28;20230;-81
2022/04/03 08:34:27;;;;;;;5.72;4.28;;;13.30;56.10;;;;;;5003280;28;20256;-81
2022/04/03 08:37:31;;;;;;;6.13;4.80;;;14.10;55.90;;;;;;4993101;28;20561;-81
2022/04/03 08:40:22;;;;;;;6.95;4.57;;;13.60;56.20;;;;;;4995705;28;20233;-81
2022/04/03 08:43:11;;;;;;;7.40;4.80;;;15.20;57.90;;;;;;5008277;28;20218;-81
2022/04/03 08:46:01;;;;;;;6.53;4.47;;;14.40;53.60;;;;;;4987784;28;20314;-81
2022/04/03 08:48:52;;;;;;;6.60;4.78;;;14.80;52.50;;;;;;4992106;28;20252;-81
2022/04/03 08:51:42;;;;;;;8.07;4.85;;;14.90;54.60;;;;;;4992526;28;20385;-80
2022/04/03 08:54:32;;;;;;;7.88;4.22;;;15.40;52.80;;;;;;4988113;28;20317;-80
2022/04/03 08:57:23;;;;;;;7.03;4.38;;;15.50;52.80;;;;;;4981679;28;20234;-79
2022/04/03 09:00:14;;;;;;;6.10;3.78;;;15.90;53.80;;;;;;5001593;28;20594;-80
2022/04/03 09:03:06;;;;;;;6.72;4.30;;;18.30;53.40;;;;;;4986480;28;20219;-80
2022/04/03 09:06:13;;;;;;;5.30;3.63;;;18.90;54.10;;;;;;4988567;28;20226;-80
2022/04/03 09:09:03;;;;;;;5.00;3.55;;;19.10;48.30;;;;;;5000095;28;20705;-79
2022/04/03 09:12:09;;;;;;;4.22;3.40;;;17.20;47.10;;;;;;4984764;28;20230;-80
2022/04/03 09:14:57;;;;;;;6.60;3.72;;;16.40;47.80;;;;;;4990517;28;20218;-80
2022/04/03 09:17:49;;;;;;;6.65;4.10;;;16.50;49.70;;;;;;5002750;28;20222;-79
2022/04/03 09:20:44;;;;;;;4.60;3.50;;;16.60;49.40;;;;;;5000770;28;20821;-80
2022/04/03 09:23:34;;;;;;;4.57;3.55;;;12.90;52.80;;;;;;4987242;28;20364;-80
2022/04/03 09:26:24;;;;;;;6.32;3.72;;;11.00;56.50;;;;;;5002281;28;20308;-81
2022/04/03 09:29:15;;;;;;;6.10;3.53;;;10.60;61.80;;;;;;4986018;28;20226;-81
2022/04/03 09:32:04;;;;;;;6.80;3.22;;;8.80;61.20;;;;;;5002171;28;20225;-82
2022/04/03 09:34:57;;;;;;;5.07;3.43;;;7.60;62.10;;;;;;5004770;28;20216;-81
2022/04/03 09:38:10;;;;;;;6.23;3.10;;;6.80;63.10;;;;;;5002005;28;20232;-81
2022/04/03 09:41:01;;;;;;;5.53;3.80;;;6.40;64.80;;;;;;5002964;28;20230;-80
2022/04/03 09:43:54;;;;;;;5.63;3.67;;;7.10;68.20;;;;;;4999878;28;20318;-80
2022/04/03 09:46:43;;;;;;;4.50;3.10;;;6.80;68.70;;;;;;4995235;28;20301;-80
2022/04/03 09:49:33;;;;;;;3.90;3.30;;;7.10;69.90;;;;;;4994198;28;20237;-80
2022/04/03 09:52:41;;;;;;;4.47;3.20;;;6.60;69.50;;;;;;4999029;28;20215;-81
2022/04/03 09:55:31;;;;;;;3.73;2.63;;;6.40;66.50;;;;;;5001433;28;20299;-80
2022/04/03 09:58:23;;;;;;;4.77;3.10;;;6.30;68.80;;;;;;5000561;28;20218;-80
2022/04/03 10:01:23;;;;;;;5.33;3.43;;;6.40;67.20;;;;;;4992579;28;20321;-79
2022/04/03 10:04:14;;;;;;;7.63;3.80;;;6.90;71.90;;;;;;5001791;28;20222;-80
2022/04/03 10:07:05;;;;;;;4.47;3.00;;;7.00;76.60;;;;;;4989117;28;20216;-81
2022/04/03 10:09:54;;;;;;;3.30;2.63;;;6.80;73.70;;;;;;4986120;28;20226;-80
2022/04/03 10:12:43;;;;;;;4.10;3.10;;;6.20;68.10;;;;;;4991908;28;20225;-80
2022/04/03 10:15:34;;;;;;;5.53;3.30;;;5.80;69.40;;;;;;4999680;28;20320;-81
2022/04/03 10:18:23;;;;;;;4.80;3.40;;;6.20;70.30;;;;;;4986916;28;20222;-81
2022/04/03 10:21:17;;;;;;;8.60;3.60;;;6.30;67.80;;;;;;4999447;28;20226;-81
2022/04/03 10:24:11;;;;;;;4.90;3.60;;;6.70;71.30;;;;;;4992559;28;20230;-81
2022/04/03 10:27:05;;;;;;;4.10;3.30;;;6.80;73.00;;;;;;4998567;28;20236;-82
2022/04/03 10:29:58;;;;;;;3.93;2.90;;;7.10;75.60;;;;;;4985042;28;20226;-81
2022/04/03 10:33:14;;;;;;;5.07;3.30;;;7.20;70.00;;;;;;4993556;28;20226;-82
2022/04/03 10:36:05;;;;;;;5.37;3.40;;;7.40;73.10;;;;;;4988031;28;20296;-81
2022/04/03 10:39:00;;;;;;;5.47;3.50;;;7.20;70.00;;;;;;4990806;28;20228;-82
2022/04/03 10:41:49;;;;;;;3.97;3.30;;;7.20;72.50;;;;;;4995265;28;20274;-83
2022/04/03 10:44:38;;;;;;;5.00;3.10;;;7.00;70.70;;;;;;4993128;28;20225;-82
2022/04/03 10:47:26;;;;;;;4.17;3.33;;;7.10;72.00;;;;;;4993963;28;20218;-82
2022/04/03 10:50:17;;;;;;;5.10;3.30;;;6.80;70.70;;;;;;4993127;28;20229;-83
2022/04/03 10:53:06;;;;;;;5.50;2.90;;;6.70;69.70;;;;;;4996942;28;20229;-82
2022/04/03 10:55:57;;;;;;;5.50;3.20;;;6.70;71.70;;;;;;4997272;28;20234;-85
2022/04/03 10:58:47;;;;;;;7.23;3.40;;;6.80;74.20;;;;;;4998542;28;20222;-81
2022/04/03 11:01:36;;;;;;;4.23;3.00;;;7.30;74.90;;;;;;5005501;28;20254;-82
2022/04/03 11:04:25;;;;;;;4.70;3.20;;;7.10;68.40;;;;;;4995708;28;20234;-82
2022/04/03 11:07:17;;;;;;;5.50;3.33;;;7.30;68.40;;;;;;4993298;28;20219;-83
2022/04/03 11:10:08;;;;;;;4.93;3.70;;;7.40;73.50;;;;;;5009131;28;20228;-83
2022/04/03 11:12:58;;;;;;;6.70;3.30;;;7.50;70.10;;;;;;4993480;28;20728;-83
2022/04/03 11:15:51;;;;;;;5.80;3.33;;;7.70;75.00;;;;;;4988472;28;20765;-83
2022/04/03 11:18:47;;;;;;;6.60;3.10;;;7.50;68.30;;;;;;5005655;28;20795;-83
2022/04/03 11:21:38;;;;;;;5.00;3.23;;;7.60;70.20;;;;;;4993274;28;20561;-84
2022/04/03 11:24:29;;;;;;;4.73;3.40;;;7.20;69.40;;;;;;5004175;28;20224;-82
2022/04/03 11:27:19;;;;;;;19.90;12.07;;;6.60;65.50;;;;;;4991743;28;20222;-83
2022/04/03 11:30:09;;;;;;;8.17;4.03;;;6.60;71.00;;;;;;5006983;28;20412;-82
2022/04/03 11:32:59;;;;;;;8.57;3.73;;;6.70;72.60;;;;;;4997650;28;20298;-82
2022/04/03 11:35:48;;;;;;;6.83;3.73;;;6.50;72.40;;;;;;4994091;28;20241;-82
2022/04/03 11:38:39;;;;;;;7.27;3.60;;;6.50;74.70;;;;;;4994432;28;20726;-82
2022/04/03 11:41:31;;;;;;;5.33;4.03;;;6.10;66.10;;;;;;5008277;28;20227;-82
2022/04/03 11:44:25;;;;;;;5.87;3.80;;;6.30;70.60;;;;;;5009007;28;20300;-82
2022/04/03 11:47:21;;;;;;;4.13;3.20;;;6.60;74.80;;;;;;4990126;28;20230;-82
2022/04/03 11:50:12;;;;;;;5.97;3.50;;;6.20;68.00;;;;;;4993761;28;20617;-83
2022/04/03 11:53:08;;;;;;;5.17;3.83;;;6.20;68.10;;;;;;4992812;28;20723;-83
2022/04/03 11:56:04;;;;;;;5.00;3.77;;;6.60;69.20;;;;;;4997884;28;20249;-83
2022/04/03 11:58:57;;;;;;;5.73;3.97;;;6.30;65.90;;;;;;4993860;28;20242;-82
2022/04/03 12:01:50;;;;;;;5.33;3.70;;;6.60;71.60;;;;;;4996618;28;20227;-84
2022/04/03 12:04:40;;;;;;;6.47;3.37;;;6.80;72.00;;;;;;4990920;28;20245;-83
2022/04/03 12:07:30;;;;;;;4.40;3.37;;;6.70;71.50;;;;;;5008677;28;20317;-82
2022/04/03 12:10:26;;;;;;;5.57;3.53;;;6.70;73.00;;;;;;4991923;28;20229;-90
2022/04/03 12:13:17;;;;;;;6.27;4.30;;;6.50;70.00;;;;;;4995334;28;20922;-83
2022/04/03 12:16:10;;;;;;;6.67;3.80;;;6.40;74.30;;;;;;4993942;28;20222;-83
2022/04/03 12:19:01;;;;;;;8.03;4.40;;;6.40;70.90;;;;;;4998102;28;20230;-83
2022/04/03 12:21:54;;;;;;;5.13;3.57;;;6.40;74.30;;;;;;5008303;28;20245;-83
2022/04/03 12:24:45;;;;;;;7.13;4.03;;;6.70;72.50;;;;;;4993370;28;20229;-84
2022/04/03 12:27:37;;;;;;;6.50;3.90;;;6.80;71.00;;;;;;4983631;28;20305;-83
2022/04/03 12:30:29;;;;;;;5.93;3.53;;;6.90;70.10;;;;;;5004150;28;20222;-83
2022/04/03 12:33:20;;;;;;;4.53;3.60;;;7.00;72.40;;;;;;4990847;28;20714;-86
2022/04/03 12:36:09;;;;;;;4.30;3.50;;;7.00;75.20;;;;;;4994935;28;20226;-83
2022/04/03 12:39:29;;;;;;;4.90;3.87;;;6.80;71.80;;;;;;5005049;28;20228;-82
2022/04/03 12:42:23;;;;;;;4.70;3.50;;;7.00;75.70;;;;;;5003686;28;20701;-82
2022/04/03 12:45:16;;;;;;;4.83;3.53;;;7.00;73.00;;;;;;4992487;28;20230;-83
2022/04/03 12:48:06;;;;;;;4.17;3.00;;;6.90;71.40;;;;;;4994743;28;20301;-90
2022/04/03 12:51:08;;;;;;;6.40;3.60;;;6.90;71.30;;;;;;5012920;28;20391;-90
2022/04/03 12:54:11;;;;;;;6.90;3.60;;;6.80;72.70;;;;;;5006931;28;20215;-90
2022/04/03 13:00:17;;;;;;;6.13;3.73;;;7.30;73.80;;;;;;4978051;28;20229;-88
2022/04/03 13:03:06;;;;;;;5.40;3.50;;;7.10;74.80;;;;;;4998236;28;20958;-88
2022/04/03 13:05:57;;;;;;;7.00;3.20;;;6.80;74.00;;;;;;4996772;28;20316;-89
2022/04/03 13:08:50;;;;;;;6.07;3.10;;;6.60;71.70;;;;;;4997905;28;20230;-87
2022/04/03 13:11:43;;;;;;;4.37;3.37;;;6.50;70.60;;;;;;5003555;28;20226;-88
2022/04/03 13:14:38;;;;;;;4.23;2.90;;;6.50;77.30;;;;;;5007220;28;20285;-89
2022/04/03 13:17:27;;;;;;;5.30;3.33;;;6.80;75.60;;;;;;4990473;28;20294;-89
2022/04/03 13:20:16;;;;;;;4.23;3.17;;;6.80;74.40;;;;;;4993380;28;20225;-88
2022/04/03 13:23:07;;;;;;;5.17;3.43;;;6.60;72.20;;;;;;4992106;28;20807;-87
2022/04/03 13:25:56;;;;;;;4.23;3.37;;;6.60;74.80;;;;;;4997451;28;20252;-86
2022/04/03 13:28:45;;;;;;;4.90;2.77;;;6.70;77.10;;;;;;5005302;28;20222;-87
2022/04/03 13:31:34;;;;;;;4.97;3.27;;;6.60;76.00;;;;;;5010279;28;20341;-87
2022/04/03 13:34:23;;;;;;;3.93;2.93;;;6.70;75.60;;;;;;5013180;28;20222;-88
2022/04/03 13:37:12;;;;;;;6.33;3.40;;;6.60;74.40;;;;;;5002856;28;20570;-89
2022/04/03 13:40:04;;;;;;;4.43;3.17;;;6.60;73.00;;;;;;5007349;28;20245;-89
2022/04/03 13:42:53;;;;;;;3.93;2.73;;;6.50;76.10;;;;;;5007052;28;20230;-88
2022/04/03 13:45:58;;;;;;;5.97;2.90;;;6.50;73.40;;;;;;5006699;28;20229;-88
2022/04/03 13:48:47;;;;;;;4.73;3.30;;;6.50;74.40;;;;;;5010896;28;20252;-88
2022/04/03 13:51:37;;;;;;;4.50;3.13;;;6.50;75.80;;;;;;5005593;28;20226;-89
2022/04/03 13:54:26;;;;;;;5.03;3.10;;;6.60;76.10;;;;;;5003747;28;20238;-89
2022/04/03 13:57:17;;;;;;;4.67;2.93;;;6.70;78.30;;;;;;5004599;28;20273;-89
2022/04/03 14:00:08;;;;;;;5.07;2.93;;;6.50;71.90;;;;;;5002065;28;20222;-89
2022/04/03 14:02:59;;;;;;;7.53;3.40;;;6.60;75.20;;;;;;5011221;28;20222;-89
2022/04/03 14:05:48;;;;;;;5.73;3.10;;;6.60;73.90;;;;;;5001630;28;20230;-89
2022/04/03 14:08:37;;;;;;;9.03;3.60;;;6.70;78.00;;;;;;5003113;28;20214;-89
2022/04/03 14:11:26;;;;;;;5.13;3.07;;;6.70;74.00;;;;;;5001757;28;20704;-89
2022/04/03 14:14:16;;;;;;;3.53;2.50;;;6.70;71.60;;;;;;4997006;28;20229;-89
2022/04/03 14:17:05;;;;;;;6.13;3.07;;;6.50;69.10;;;;;;4998360;28;20218;-89
2022/04/03 14:19:54;;;;;;;4.57;3.40;;;6.60;75.40;;;;;;5000832;28;20285;-89
2022/04/03 14:22:43;;;;;;;5.53;3.07;;;6.30;69.10;;;;;;5011317;28;20704;-89
2022/04/03 14:25:32;;;;;;;4.60;3.17;;;6.20;71.30;;;;;;5002819;28;20226;-86
2022/04/03 14:28:21;;;;;;;5.90;3.60;;;6.10;74.30;;;;;;4998228;28;20743;-89
2022/04/03 14:31:12;;;;;;;6.73;4.20;;;6.10;75.00;;;;;;5029244;28;20281;-89
2022/04/03 14:34:03;;;;;;;6.10;3.63;;;6.20;75.20;;;;;;5013585;28;20225;-89
2022/04/03 14:36:52;;;;;;;4.83;3.40;;;6.20;75.00;;;;;;5010410;28;20236;-89
2022/04/03 14:39:41;;;;;;;5.67;3.33;;;6.30;75.00;;;;;;5008329;28;20230;-89
2022/04/03 14:42:30;;;;;;;4.10;2.97;;;6.20;72.10;;;;;;4994650;28;20237;-89
2022/04/03 14:45:35;;;;;;;3.27;2.90;;;6.00;72.90;;;;;;5008545;28;21572;-89
2022/04/03 14:48:25;;;;;;;5.27;3.10;;;6.00;75.20;;;;;;5008805;28;20221;-88
2022/04/03 14:51:14;;;;;;;4.53;2.83;;;6.00;75.10;;;;;;5025928;28;20218;-87
2022/04/03 14:54:07;;;;;;;3.93;3.00;;;6.00;73.40;;;;;;5016166;28;20228;-87
2022/04/03 14:56:56;;;;;;;3.93;3.00;;;6.00;73.00;;;;;;5013336;28;20325;-88
2022/04/03 14:59:45;;;;;;;6.23;3.20;;;6.00;74.80;;;;;;5018542;28;20230;-88